sensor_id;sensor_type;location;lat;lon;timestamp;P1;durP1;ratioP1;P2;durP2;ratioP2
52934;SDS011;38802;50.198;19.796;2023-09-19T00:01:08;8.80;;;8.00;;
52934;SDS011;38802;50.198;19.796;2023-09-19T00:03:39;12.80;;;8.80;;
52934;SDS011;38802;50.198;19.796;2023-09-19T00:06:10;9.70;;;8.60;;
52934;SDS011;38802;50.198;19.796;2023-09-19T00:08:38;14.20;;;8.90;;
52934;SDS011;38802;50.198;19.796;2023-09-19T00:11:06;12.20;;;8.50;;
52934;SDS011;38802;50.198;19.796;2023-09-19T00:13:36;13.10;;;9.00;;
52934;SDS011;38802;50.198;19.796;2023-09-19T00:16:08;10.00;;;8.40;;
52934;SDS011;38802;50.198;19.796;2023-09-19T00:18:42;20.20;;;9.40;;
52934;SDS011;38802;50.198;19.796;2023-09-19T00:21:10;10.20;;;9.10;;
52934;SDS011;38802;50.198;19.796;2023-09-19T00:23:38;13.20;;;8.80;;
52934;SDS011;38802;50.198;19.796;2023-09-19T00:26:08;12.90;;;8.30;;
52934;SDS011;38802;50.198;19.796;2023-09-19T00:28:37;10.80;;;8.50;;
52934;SDS011;38802;50.198;19.796;2023-09-19T00:31:07;14.00;;;8.00;;
52934;SDS011;38802;50.198;19.796;2023-09-19T00:33:37;9.70;;;8.70;;
52934;SDS011;38802;50.198;19.796;2023-09-19T00:36:05;9.80;;;8.30;;
52934;SDS011;38802;50.198;19.796;2023-09-19T00:38:33;8.70;;;7.90;;
52934;SDS011;38802;50.198;19.796;2023-09-19T00:41:02;11.10;;;8.70;;
52934;SDS011;38802;50.198;19.796;2023-09-19T00:43:31;10.60;;;7.80;;
52934;SDS011;38802;50.198;19.796;2023-09-19T00:46:02;13.60;;;9.30;;
52934;SDS011;38802;50.198;19.796;2023-09-19T00:48:30;16.90;;;8.30;;
52934;SDS011;38802;50.198;19.796;2023-09-19T00:50:59;10.80;;;8.30;;
52934;SDS011;38802;50.198;19.796;2023-09-19T00:53:31;9.70;;;8.20;;
52934;SDS011;38802;50.198;19.796;2023-09-19T00:56:02;12.10;;;8.40;;
52934;SDS011;38802;50.198;19.796;2023-09-19T00:58:33;10.70;;;8.00;;
52934;SDS011;38802;50.198;19.796;2023-09-19T01:01:03;11.00;;;8.40;;
52934;SDS011;38802;50.198;19.796;2023-09-19T01:03:38;13.50;;;8.30;;
52934;SDS011;38802;50.198;19.796;2023-09-19T01:06:08;9.60;;;8.60;;
52934;SDS011;38802;50.198;19.796;2023-09-19T01:08:36;13.40;;;8.40;;
52934;SDS011;38802;50.198;19.796;2023-09-19T01:11:20;11.30;;;8.70;;
52934;SDS011;38802;50.198;19.796;2023-09-19T01:13:56;11.00;;;9.50;;
52934;SDS011;38802;50.198;19.796;2023-09-19T01:16:32;13.50;;;8.90;;
52934;SDS011;38802;50.198;19.796;2023-09-19T01:22:21;9.40;;;8.50;;
52934;SDS011;38802;50.198;19.796;2023-09-19T01:30:45;10.10;;;8.50;;
52934;SDS011;38802;50.198;19.796;2023-09-19T01:33:15;11.80;;;8.00;;
52934;SDS011;38802;50.198;19.796;2023-09-19T01:35:46;9.30;;;8.40;;
52934;SDS011;38802;50.198;19.796;2023-09-19T01:38:15;10.20;;;9.20;;
52934;SDS011;38802;50.198;19.796;2023-09-19T01:40:45;9.50;;;8.60;;
52934;SDS011;38802;50.198;19.796;2023-09-19T01:43:33;10.30;;;9.30;;
52934;SDS011;38802;50.198;19.796;2023-09-19T01:46:13;11.00;;;9.30;;
52934;SDS011;38802;50.198;19.796;2023-09-19T01:51:53;12.00;;;9.60;;
52934;SDS011;38802;50.198;19.796;2023-09-19T01:54:30;15.60;;;9.90;;
52934;SDS011;38802;50.198;19.796;2023-09-19T01:57:11;11.40;;;10.20;;
52934;SDS011;38802;50.198;19.796;2023-09-19T01:59:52;15.30;;;9.70;;
52934;SDS011;38802;50.198;19.796;2023-09-19T02:02:24;10.40;;;9.50;;
52934;SDS011;38802;50.198;19.796;2023-09-19T02:04:54;13.60;;;10.00;;
52934;SDS011;38802;50.198;19.796;2023-09-19T02:07:25;13.50;;;11.10;;
52934;SDS011;38802;50.198;19.796;2023-09-19T02:09:55;10.90;;;9.20;;
52934;SDS011;38802;50.198;19.796;2023-09-19T02:12:23;16.30;;;11.10;;
52934;SDS011;38802;50.198;19.796;2023-09-19T02:14:51;11.00;;;9.90;;
52934;SDS011;38802;50.198;19.796;2023-09-19T02:17:19;10.90;;;10.00;;
52934;SDS011;38802;50.198;19.796;2023-09-19T02:19:47;16.20;;;11.60;;
52934;SDS011;38802;50.198;19.796;2023-09-19T02:22:15;20.50;;;10.70;;
52934;SDS011;38802;50.198;19.796;2023-09-19T02:24:44;14.20;;;11.10;;
52934;SDS011;38802;50.198;19.796;2023-09-19T02:27:15;15.40;;;10.80;;
52934;SDS011;38802;50.198;19.796;2023-09-19T02:29:44;10.80;;;9.80;;
52934;SDS011;38802;50.198;19.796;2023-09-19T02:32:12;15.90;;;10.30;;
52934;SDS011;38802;50.198;19.796;2023-09-19T02:34:40;14.60;;;11.60;;
52934;SDS011;38802;50.198;19.796;2023-09-19T02:37:09;15.30;;;11.20;;
52934;SDS011;38802;50.198;19.796;2023-09-19T02:39:38;13.80;;;11.00;;
52934;SDS011;38802;50.198;19.796;2023-09-19T02:42:07;12.40;;;10.70;;
52934;SDS011;38802;50.198;19.796;2023-09-19T02:44:35;13.00;;;11.30;;
52934;SDS011;38802;50.198;19.796;2023-09-19T02:47:03;15.30;;;10.20;;
52934;SDS011;38802;50.198;19.796;2023-09-19T02:49:33;12.20;;;10.00;;
52934;SDS011;38802;50.198;19.796;2023-09-19T02:52:01;11.70;;;10.10;;
52934;SDS011;38802;50.198;19.796;2023-09-19T02:54:30;13.20;;;11.70;;
52934;SDS011;38802;50.198;19.796;2023-09-19T02:56:58;15.90;;;10.80;;
52934;SDS011;38802;50.198;19.796;2023-09-19T02:59:26;11.60;;;10.40;;
52934;SDS011;38802;50.198;19.796;2023-09-19T03:01:56;11.70;;;10.60;;
52934;SDS011;38802;50.198;19.796;2023-09-19T03:04:25;15.30;;;11.10;;
52934;SDS011;38802;50.198;19.796;2023-09-19T03:06:56;11.70;;;10.40;;
52934;SDS011;38802;50.198;19.796;2023-09-19T03:09:28;13.20;;;11.40;;
52934;SDS011;38802;50.198;19.796;2023-09-19T03:11:56;12.50;;;11.10;;
52934;SDS011;38802;50.198;19.796;2023-09-19T03:14:24;12.40;;;11.00;;
52934;SDS011;38802;50.198;19.796;2023-09-19T03:16:53;12.40;;;11.20;;
52934;SDS011;38802;50.198;19.796;2023-09-19T03:19:21;13.70;;;12.40;;
52934;SDS011;38802;50.198;19.796;2023-09-19T03:21:58;16.30;;;12.70;;
52934;SDS011;38802;50.198;19.796;2023-09-19T03:24:26;12.70;;;11.40;;
52934;SDS011;38802;50.198;19.796;2023-09-19T03:26:54;12.90;;;11.90;;
52934;SDS011;38802;50.198;19.796;2023-09-19T03:29:23;12.80;;;11.70;;
52934;SDS011;38802;50.198;19.796;2023-09-19T03:31:51;11.60;;;10.40;;
52934;SDS011;38802;50.198;19.796;2023-09-19T03:34:22;13.40;;;10.90;;
52934;SDS011;38802;50.198;19.796;2023-09-19T03:36:50;11.00;;;10.10;;
52934;SDS011;38802;50.198;19.796;2023-09-19T03:39:19;12.30;;;10.60;;
52934;SDS011;38802;50.198;19.796;2023-09-19T03:41:47;12.60;;;9.80;;
52934;SDS011;38802;50.198;19.796;2023-09-19T03:44:15;11.80;;;10.70;;
52934;SDS011;38802;50.198;19.796;2023-09-19T03:46:43;10.60;;;9.60;;
52934;SDS011;38802;50.198;19.796;2023-09-19T03:49:12;11.40;;;9.70;;
52934;SDS011;38802;50.198;19.796;2023-09-19T03:51:40;11.20;;;9.70;;
52934;SDS011;38802;50.198;19.796;2023-09-19T03:54:09;13.10;;;9.90;;
52934;SDS011;38802;50.198;19.796;2023-09-19T03:56:37;10.00;;;9.20;;
52934;SDS011;38802;50.198;19.796;2023-09-19T03:59:05;10.60;;;9.70;;
52934;SDS011;38802;50.198;19.796;2023-09-19T04:01:33;11.10;;;9.60;;
52934;SDS011;38802;50.198;19.796;2023-09-19T04:04:02;10.30;;;9.40;;
52934;SDS011;38802;50.198;19.796;2023-09-19T04:06:36;10.10;;;9.20;;
52934;SDS011;38802;50.198;19.796;2023-09-19T04:09:04;10.30;;;9.50;;
52934;SDS011;38802;50.198;19.796;2023-09-19T04:11:34;10.90;;;9.80;;
52934;SDS011;38802;50.198;19.796;2023-09-19T04:14:03;10.40;;;9.60;;
52934;SDS011;38802;50.198;19.796;2023-09-19T04:16:32;11.10;;;10.20;;
52934;SDS011;38802;50.198;19.796;2023-09-19T04:19:02;10.30;;;9.40;;
52934;SDS011;38802;50.198;19.796;2023-09-19T04:21:31;16.60;;;10.60;;
52934;SDS011;38802;50.198;19.796;2023-09-19T04:24:00;11.70;;;10.60;;
52934;SDS011;38802;50.198;19.796;2023-09-19T04:26:50;11.50;;;10.30;;
52934;SDS011;38802;50.198;19.796;2023-09-19T04:29:18;11.40;;;10.50;;
52934;SDS011;38802;50.198;19.796;2023-09-19T04:31:47;10.70;;;9.90;;
52934;SDS011;38802;50.198;19.796;2023-09-19T04:34:16;11.00;;;9.80;;
52934;SDS011;38802;50.198;19.796;2023-09-19T04:36:44;10.80;;;9.90;;
52934;SDS011;38802;50.198;19.796;2023-09-19T04:39:13;14.00;;;9.90;;
52934;SDS011;38802;50.198;19.796;2023-09-19T04:41:41;12.20;;;10.60;;
52934;SDS011;38802;50.198;19.796;2023-09-19T04:44:09;12.30;;;11.10;;
52934;SDS011;38802;50.198;19.796;2023-09-19T04:46:37;12.10;;;10.80;;
52934;SDS011;38802;50.198;19.796;2023-09-19T04:49:05;13.00;;;11.70;;
52934;SDS011;38802;50.198;19.796;2023-09-19T04:51:33;12.00;;;10.70;;
52934;SDS011;38802;50.198;19.796;2023-09-19T04:54:04;14.00;;;11.20;;
52934;SDS011;38802;50.198;19.796;2023-09-19T04:56:33;16.10;;;10.70;;
52934;SDS011;38802;50.198;19.796;2023-09-19T04:59:01;13.10;;;11.00;;
52934;SDS011;38802;50.198;19.796;2023-09-19T05:01:30;12.40;;;11.30;;
52934;SDS011;38802;50.198;19.796;2023-09-19T05:04:00;13.30;;;12.00;;
52934;SDS011;38802;50.198;19.796;2023-09-19T05:06:28;11.70;;;10.50;;
52934;SDS011;38802;50.198;19.796;2023-09-19T05:08:56;11.60;;;10.50;;
52934;SDS011;38802;50.198;19.796;2023-09-19T05:11:25;12.50;;;11.50;;
52934;SDS011;38802;50.198;19.796;2023-09-19T05:13:54;11.80;;;10.80;;
52934;SDS011;38802;50.198;19.796;2023-09-19T05:16:22;11.90;;;10.80;;
52934;SDS011;38802;50.198;19.796;2023-09-19T05:18:51;11.80;;;10.40;;
52934;SDS011;38802;50.198;19.796;2023-09-19T05:21:20;12.80;;;11.50;;
52934;SDS011;38802;50.198;19.796;2023-09-19T05:23:51;11.60;;;10.50;;
52934;SDS011;38802;50.198;19.796;2023-09-19T05:26:20;15.00;;;9.90;;
52934;SDS011;38802;50.198;19.796;2023-09-19T05:28:49;11.50;;;10.60;;
52934;SDS011;38802;50.198;19.796;2023-09-19T05:31:18;11.80;;;10.70;;
52934;SDS011;38802;50.198;19.796;2023-09-19T05:34:07;11.30;;;10.20;;
52934;SDS011;38802;50.198;19.796;2023-09-19T05:36:36;11.10;;;10.10;;
52934;SDS011;38802;50.198;19.796;2023-09-19T05:39:04;12.50;;;10.40;;
52934;SDS011;38802;50.198;19.796;2023-09-19T05:41:32;11.10;;;10.00;;
52934;SDS011;38802;50.198;19.796;2023-09-19T05:44:00;10.90;;;9.90;;
52934;SDS011;38802;50.198;19.796;2023-09-19T05:46:31;11.50;;;10.60;;
52934;SDS011;38802;50.198;19.796;2023-09-19T05:48:59;10.80;;;9.90;;
52934;SDS011;38802;50.198;19.796;2023-09-19T05:51:27;10.90;;;9.80;;
52934;SDS011;38802;50.198;19.796;2023-09-19T05:53:56;13.10;;;10.20;;
52934;SDS011;38802;50.198;19.796;2023-09-19T05:56:25;13.10;;;10.20;;
52934;SDS011;38802;50.198;19.796;2023-09-19T05:58:53;13.40;;;10.60;;
52934;SDS011;38802;50.198;19.796;2023-09-19T06:01:21;13.10;;;11.80;;
52934;SDS011;38802;50.198;19.796;2023-09-19T06:03:50;10.70;;;9.60;;
52934;SDS011;38802;50.198;19.796;2023-09-19T06:06:19;11.00;;;10.10;;
52934;SDS011;38802;50.198;19.796;2023-09-19T06:08:47;11.00;;;9.90;;
52934;SDS011;38802;50.198;19.796;2023-09-19T06:11:18;10.70;;;9.70;;
52934;SDS011;38802;50.198;19.796;2023-09-19T06:13:48;12.70;;;11.50;;
52934;SDS011;38802;50.198;19.796;2023-09-19T06:16:16;10.00;;;9.30;;
52934;SDS011;38802;50.198;19.796;2023-09-19T06:18:47;10.90;;;9.90;;
52934;SDS011;38802;50.198;19.796;2023-09-19T06:21:20;12.70;;;9.50;;
52934;SDS011;38802;50.198;19.796;2023-09-19T06:23:49;11.90;;;9.20;;
52934;SDS011;38802;50.198;19.796;2023-09-19T06:26:17;10.20;;;9.30;;
52934;SDS011;38802;50.198;19.796;2023-09-19T06:28:45;10.60;;;8.70;;
52934;SDS011;38802;50.198;19.796;2023-09-19T06:31:14;9.30;;;8.30;;
52934;SDS011;38802;50.198;19.796;2023-09-19T06:33:43;9.10;;;8.30;;
52934;SDS011;38802;50.198;19.796;2023-09-19T06:36:11;9.00;;;8.30;;
52934;SDS011;38802;50.198;19.796;2023-09-19T06:38:39;6.30;;;5.80;;
52934;SDS011;38802;50.198;19.796;2023-09-19T06:41:08;6.40;;;5.60;;
52934;SDS011;38802;50.198;19.796;2023-09-19T06:43:37;5.60;;;5.20;;
52934;SDS011;38802;50.198;19.796;2023-09-19T06:46:06;4.10;;;3.80;;
52934;SDS011;38802;50.198;19.796;2023-09-19T06:48:35;3.60;;;3.30;;
52934;SDS011;38802;50.198;19.796;2023-09-19T06:51:04;4.00;;;3.20;;
52934;SDS011;38802;50.198;19.796;2023-09-19T06:53:33;3.40;;;3.10;;
52934;SDS011;38802;50.198;19.796;2023-09-19T06:56:04;2.90;;;2.70;;
52934;SDS011;38802;50.198;19.796;2023-09-19T06:58:33;3.00;;;2.70;;
52934;SDS011;38802;50.198;19.796;2023-09-19T07:01:02;3.30;;;3.00;;
52934;SDS011;38802;50.198;19.796;2023-09-19T07:03:31;5.60;;;3.20;;
52934;SDS011;38802;50.198;19.796;2023-09-19T07:06:01;2.60;;;2.40;;
52934;SDS011;38802;50.198;19.796;2023-09-19T07:08:32;2.30;;;2.10;;
52934;SDS011;38802;50.198;19.796;2023-09-19T07:11:00;1.70;;;1.60;;
52934;SDS011;38802;50.198;19.796;2023-09-19T07:13:29;1.70;;;1.60;;
52934;SDS011;38802;50.198;19.796;2023-09-19T07:15:58;3.50;;;1.80;;
52934;SDS011;38802;50.198;19.796;2023-09-19T07:18:27;1.70;;;1.60;;
52934;SDS011;38802;50.198;19.796;2023-09-19T07:20:57;2.00;;;1.70;;
52934;SDS011;38802;50.198;19.796;2023-09-19T07:23:34;2.60;;;1.60;;
52934;SDS011;38802;50.198;19.796;2023-09-19T07:26:02;2.10;;;1.90;;
52934;SDS011;38802;50.198;19.796;2023-09-19T07:28:33;2.70;;;2.30;;
52934;SDS011;38802;50.198;19.796;2023-09-19T07:31:03;2.40;;;2.20;;
52934;SDS011;38802;50.198;19.796;2023-09-19T07:33:33;2.40;;;2.20;;
52934;SDS011;38802;50.198;19.796;2023-09-19T07:36:01;3.30;;;2.20;;
52934;SDS011;38802;50.198;19.796;2023-09-19T07:38:30;5.50;;;2.20;;
52934;SDS011;38802;50.198;19.796;2023-09-19T07:41:38;4.80;;;2.20;;
52934;SDS011;38802;50.198;19.796;2023-09-19T07:44:04;2.60;;;2.40;;
52934;SDS011;38802;50.198;19.796;2023-09-19T07:46:31;2.90;;;2.50;;
52934;SDS011;38802;50.198;19.796;2023-09-19T07:48:58;5.90;;;2.70;;
52934;SDS011;38802;50.198;19.796;2023-09-19T07:51:25;3.50;;;3.10;;
52934;SDS011;38802;50.198;19.796;2023-09-19T07:53:52;4.90;;;3.60;;
52934;SDS011;38802;50.198;19.796;2023-09-19T07:56:20;5.20;;;4.80;;
52934;SDS011;38802;50.198;19.796;2023-09-19T07:58:47;5.20;;;4.80;;
52934;SDS011;38802;50.198;19.796;2023-09-19T08:01:15;5.90;;;5.40;;
52934;SDS011;38802;50.198;19.796;2023-09-19T08:03:42;7.60;;;7.00;;
52934;SDS011;38802;50.198;19.796;2023-09-19T08:06:10;13.20;;;11.30;;
52934;SDS011;38802;50.198;19.796;2023-09-19T08:08:37;18.50;;;15.10;;
52934;SDS011;38802;50.198;19.796;2023-09-19T08:11:04;21.70;;;17.30;;
52934;SDS011;38802;50.198;19.796;2023-09-19T08:13:39;22.70;;;20.30;;
52934;SDS011;38802;50.198;19.796;2023-09-19T08:16:15;22.80;;;20.40;;
52934;SDS011;38802;50.198;19.796;2023-09-19T08:18:47;22.40;;;19.90;;
52934;SDS011;38802;50.198;19.796;2023-09-19T08:21:14;20.90;;;18.70;;
52934;SDS011;38802;50.198;19.796;2023-09-19T08:23:44;20.30;;;18.30;;
52934;SDS011;38802;50.198;19.796;2023-09-19T08:26:11;17.00;;;15.20;;
52934;SDS011;38802;50.198;19.796;2023-09-19T08:28:38;17.40;;;15.90;;
52934;SDS011;38802;50.198;19.796;2023-09-19T08:31:07;18.20;;;16.60;;
52934;SDS011;38802;50.198;19.796;2023-09-19T08:33:36;18.00;;;15.80;;
52934;SDS011;38802;50.198;19.796;2023-09-19T08:36:04;16.40;;;14.90;;
52934;SDS011;38802;50.198;19.796;2023-09-19T08:38:33;17.90;;;16.00;;
52934;SDS011;38802;50.198;19.796;2023-09-19T08:41:05;13.40;;;12.20;;
52934;SDS011;38802;50.198;19.796;2023-09-19T08:43:36;14.90;;;13.40;;
52934;SDS011;38802;50.198;19.796;2023-09-19T08:46:10;14.10;;;12.80;;
52934;SDS011;38802;50.198;19.796;2023-09-19T08:48:52;16.00;;;12.40;;
52934;SDS011;38802;50.198;19.796;2023-09-19T08:51:26;13.00;;;11.80;;
52934;SDS011;38802;50.198;19.796;2023-09-19T08:56:49;16.00;;;14.40;;
52934;SDS011;38802;50.198;19.796;2023-09-19T08:59:17;17.10;;;15.30;;
52934;SDS011;38802;50.198;19.796;2023-09-19T09:01:51;13.60;;;12.40;;
52934;SDS011;38802;50.198;19.796;2023-09-19T09:04:20;17.70;;;15.50;;
52934;SDS011;38802;50.198;19.796;2023-09-19T09:06:50;15.80;;;13.90;;
52934;SDS011;38802;50.198;19.796;2023-09-19T09:09:20;16.20;;;13.50;;
52934;SDS011;38802;50.198;19.796;2023-09-19T09:11:48;14.00;;;12.60;;
52934;SDS011;38802;50.198;19.796;2023-09-19T09:14:20;17.10;;;12.50;;
52934;SDS011;38802;50.198;19.796;2023-09-19T09:16:47;14.20;;;12.20;;
52934;SDS011;38802;50.198;19.796;2023-09-19T09:19:15;13.90;;;10.90;;
52934;SDS011;38802;50.198;19.796;2023-09-19T09:21:51;13.30;;;12.20;;
52934;SDS011;38802;50.198;19.796;2023-09-19T09:24:27;15.50;;;11.90;;
52934;SDS011;38802;50.198;19.796;2023-09-19T09:27:00;14.30;;;11.80;;
52934;SDS011;38802;50.198;19.796;2023-09-19T09:29:45;15.70;;;13.00;;
52934;SDS011;38802;50.198;19.796;2023-09-19T09:32:16;15.80;;;12.00;;
52934;SDS011;38802;50.198;19.796;2023-09-19T09:34:51;11.10;;;10.20;;
52934;SDS011;38802;50.198;19.796;2023-09-19T09:37:28;12.50;;;11.30;;
52934;SDS011;38802;50.198;19.796;2023-09-19T09:39:58;16.10;;;11.20;;
52934;SDS011;38802;50.198;19.796;2023-09-19T09:42:45;12.60;;;11.20;;
52934;SDS011;38802;50.198;19.796;2023-09-19T09:45:25;11.90;;;9.30;;
52934;SDS011;38802;50.198;19.796;2023-09-19T09:48:03;10.30;;;9.20;;
52934;SDS011;38802;50.198;19.796;2023-09-19T09:50:46;9.00;;;8.10;;
52934;SDS011;38802;50.198;19.796;2023-09-19T09:56:06;8.00;;;7.00;;
52934;SDS011;38802;50.198;19.796;2023-09-19T09:58:49;7.60;;;6.80;;
52934;SDS011;38802;50.198;19.796;2023-09-19T10:01:25;11.10;;;6.50;;
52934;SDS011;38802;50.198;19.796;2023-09-19T10:03:59;8.60;;;6.90;;
52934;SDS011;38802;50.198;19.796;2023-09-19T10:06:27;8.50;;;6.20;;
52934;SDS011;38802;50.198;19.796;2023-09-19T10:09:14;7.70;;;6.90;;
52934;SDS011;38802;50.198;19.796;2023-09-19T10:11:44;7.80;;;7.10;;
52934;SDS011;38802;50.198;19.796;2023-09-19T10:14:17;13.90;;;7.60;;
52934;SDS011;38802;50.198;19.796;2023-09-19T10:16:50;11.70;;;8.60;;
52934;SDS011;38802;50.198;19.796;2023-09-19T10:19:21;9.20;;;8.10;;
52934;SDS011;38802;50.198;19.796;2023-09-19T10:24:25;10.30;;;7.70;;
52934;SDS011;38802;50.198;19.796;2023-09-19T10:26:54;7.10;;;6.50;;
52934;SDS011;38802;50.198;19.796;2023-09-19T10:29:21;14.00;;;7.90;;
52934;SDS011;38802;50.198;19.796;2023-09-19T10:31:52;7.20;;;6.50;;
52934;SDS011;38802;50.198;19.796;2023-09-19T10:34:20;6.60;;;5.80;;
52934;SDS011;38802;50.198;19.796;2023-09-19T10:36:49;7.70;;;6.20;;
52934;SDS011;38802;50.198;19.796;2023-09-19T10:39:18;7.90;;;5.20;;
52934;SDS011;38802;50.198;19.796;2023-09-19T10:41:53;5.60;;;5.10;;
52934;SDS011;38802;50.198;19.796;2023-09-19T10:44:25;6.40;;;5.80;;
52934;SDS011;38802;50.198;19.796;2023-09-19T10:46:52;6.60;;;5.70;;
52934;SDS011;38802;50.198;19.796;2023-09-19T10:49:20;6.70;;;5.60;;
52934;SDS011;38802;50.198;19.796;2023-09-19T10:51:50;5.50;;;5.10;;
52934;SDS011;38802;50.198;19.796;2023-09-19T10:54:22;7.90;;;6.60;;
52934;SDS011;38802;50.198;19.796;2023-09-19T10:56:53;6.80;;;5.90;;
52934;SDS011;38802;50.198;19.796;2023-09-19T10:59:23;6.80;;;5.60;;
52934;SDS011;38802;50.198;19.796;2023-09-19T11:01:52;5.80;;;5.30;;
52934;SDS011;38802;50.198;19.796;2023-09-19T11:07:07;7.50;;;6.50;;
52934;SDS011;38802;50.198;19.796;2023-09-19T11:09:48;7.70;;;6.10;;
52934;SDS011;38802;50.198;19.796;2023-09-19T11:26:48;14.40;;;13.00;;
52934;SDS011;38802;50.198;19.796;2023-09-19T11:29:33;14.10;;;12.50;;
52934;SDS011;38802;50.198;19.796;2023-09-19T11:32:00;15.60;;;14.00;;
52934;SDS011;38802;50.198;19.796;2023-09-19T11:34:43;14.80;;;13.30;;
52934;SDS011;38802;50.198;19.796;2023-09-19T11:40:10;17.70;;;15.40;;
52934;SDS011;38802;50.198;19.796;2023-09-19T11:42:55;16.40;;;15.00;;
52934;SDS011;38802;50.198;19.796;2023-09-19T11:48:16;16.60;;;15.10;;
52934;SDS011;38802;50.198;19.796;2023-09-19T11:50:45;17.80;;;14.70;;
52934;SDS011;38802;50.198;19.796;2023-09-19T11:53:13;18.10;;;16.20;;
52934;SDS011;38802;50.198;19.796;2023-09-19T11:55:43;18.40;;;16.80;;
52934;SDS011;38802;50.198;19.796;2023-09-19T11:58:11;17.10;;;15.40;;
52934;SDS011;38802;50.198;19.796;2023-09-19T12:00:43;15.80;;;14.40;;
52934;SDS011;38802;50.198;19.796;2023-09-19T12:03:47;13.70;;;12.60;;
52934;SDS011;38802;50.198;19.796;2023-09-19T12:06:20;16.00;;;14.70;;
52934;SDS011;38802;50.198;19.796;2023-09-19T12:08:52;14.30;;;13.00;;
52934;SDS011;38802;50.198;19.796;2023-09-19T12:11:21;15.10;;;12.80;;
52934;SDS011;38802;50.198;19.796;2023-09-19T12:13:49;12.90;;;11.70;;
52934;SDS011;38802;50.198;19.796;2023-09-19T12:16:35;12.30;;;11.20;;
52934;SDS011;38802;50.198;19.796;2023-09-19T12:19:17;16.60;;;11.60;;
52934;SDS011;38802;50.198;19.796;2023-09-19T12:22:02;13.20;;;12.00;;
52934;SDS011;38802;50.198;19.796;2023-09-19T12:24:32;13.30;;;12.30;;
52934;SDS011;38802;50.198;19.796;2023-09-19T12:27:02;12.40;;;10.90;;
52934;SDS011;38802;50.198;19.796;2023-09-19T12:32:50;11.70;;;10.60;;
52934;SDS011;38802;50.198;19.796;2023-09-19T12:35:27;11.60;;;10.50;;
52934;SDS011;38802;50.198;19.796;2023-09-19T12:37:55;10.80;;;9.80;;
52934;SDS011;38802;50.198;19.796;2023-09-19T12:40:23;11.40;;;8.80;;
52934;SDS011;38802;50.198;19.796;2023-09-19T12:42:57;9.20;;;7.60;;
52934;SDS011;38802;50.198;19.796;2023-09-19T12:45:25;8.60;;;7.90;;
52934;SDS011;38802;50.198;19.796;2023-09-19T12:53:43;10.40;;;9.40;;
52934;SDS011;38802;50.198;19.796;2023-09-19T12:56:13;9.30;;;8.60;;
52934;SDS011;38802;50.198;19.796;2023-09-19T13:01:16;8.70;;;7.90;;
52934;SDS011;38802;50.198;19.796;2023-09-19T13:03:44;8.80;;;7.80;;
52934;SDS011;38802;50.198;19.796;2023-09-19T13:06:11;6.60;;;5.80;;
52934;SDS011;38802;50.198;19.796;2023-09-19T13:08:39;7.80;;;7.10;;
52934;SDS011;38802;50.198;19.796;2023-09-19T13:11:16;6.50;;;5.20;;
52934;SDS011;38802;50.198;19.796;2023-09-19T13:13:46;6.80;;;6.10;;
52934;SDS011;38802;50.198;19.796;2023-09-19T13:16:31;7.00;;;5.80;;
52934;SDS011;38802;50.198;19.796;2023-09-19T13:19:09;6.50;;;6.00;;
52934;SDS011;38802;50.198;19.796;2023-09-19T13:21:38;6.90;;;5.50;;
52934;SDS011;38802;50.198;19.796;2023-09-19T13:24:27;8.70;;;8.00;;
52934;SDS011;38802;50.198;19.796;2023-09-19T13:26:55;10.70;;;7.50;;
52934;SDS011;38802;50.198;19.796;2023-09-19T13:29:26;9.70;;;7.20;;
52934;SDS011;38802;50.198;19.796;2023-09-19T13:31:55;9.00;;;6.90;;
52934;SDS011;38802;50.198;19.796;2023-09-19T13:34:22;8.50;;;7.60;;
52934;SDS011;38802;50.198;19.796;2023-09-19T13:36:50;8.80;;;8.10;;
52934;SDS011;38802;50.198;19.796;2023-09-19T13:39:17;9.20;;;8.50;;
52934;SDS011;38802;50.198;19.796;2023-09-19T13:41:44;10.10;;;9.10;;
52934;SDS011;38802;50.198;19.796;2023-09-19T13:44:14;9.40;;;8.50;;
52934;SDS011;38802;50.198;19.796;2023-09-19T13:46:44;9.50;;;8.10;;
52934;SDS011;38802;50.198;19.796;2023-09-19T13:49:20;8.80;;;8.10;;
52934;SDS011;38802;50.198;19.796;2023-09-19T13:51:49;8.90;;;8.10;;
52934;SDS011;38802;50.198;19.796;2023-09-19T13:54:16;10.60;;;9.00;;
52934;SDS011;38802;50.198;19.796;2023-09-19T13:56:43;11.40;;;9.20;;
52934;SDS011;38802;50.198;19.796;2023-09-19T13:59:11;10.60;;;9.20;;
52934;SDS011;38802;50.198;19.796;2023-09-19T14:01:38;10.00;;;9.20;;
52934;SDS011;38802;50.198;19.796;2023-09-19T14:04:06;16.00;;;9.30;;
52934;SDS011;38802;50.198;19.796;2023-09-19T14:06:54;12.10;;;10.10;;
52934;SDS011;38802;50.198;19.796;2023-09-19T14:09:21;10.30;;;9.50;;
52934;SDS011;38802;50.198;19.796;2023-09-19T14:11:50;10.70;;;8.90;;
52934;SDS011;38802;50.198;19.796;2023-09-19T14:14:19;11.50;;;9.70;;
52934;SDS011;38802;50.198;19.796;2023-09-19T14:16:49;9.20;;;8.50;;
52934;SDS011;38802;50.198;19.796;2023-09-19T14:19:16;9.70;;;9.00;;
52934;SDS011;38802;50.198;19.796;2023-09-19T14:21:43;10.80;;;9.70;;
52934;SDS011;38802;50.198;19.796;2023-09-19T14:24:10;9.90;;;8.80;;
52934;SDS011;38802;50.198;19.796;2023-09-19T14:26:38;10.10;;;8.90;;
52934;SDS011;38802;50.198;19.796;2023-09-19T14:29:06;11.10;;;10.00;;
52934;SDS011;38802;50.198;19.796;2023-09-19T14:31:39;11.40;;;10.00;;
52934;SDS011;38802;50.198;19.796;2023-09-19T14:34:07;14.00;;;9.70;;
52934;SDS011;38802;50.198;19.796;2023-09-19T14:36:38;11.10;;;10.20;;
52934;SDS011;38802;50.198;19.796;2023-09-19T14:39:05;11.20;;;10.20;;
52934;SDS011;38802;50.198;19.796;2023-09-19T14:41:32;11.40;;;10.40;;
52934;SDS011;38802;50.198;19.796;2023-09-19T14:44:01;12.60;;;11.30;;
52934;SDS011;38802;50.198;19.796;2023-09-19T14:46:35;11.20;;;10.30;;
52934;SDS011;38802;50.198;19.796;2023-09-19T14:49:10;11.60;;;10.20;;
52934;SDS011;38802;50.198;19.796;2023-09-19T14:52:00;11.90;;;9.60;;
52934;SDS011;38802;50.198;19.796;2023-09-19T14:54:30;11.90;;;10.70;;
52934;SDS011;38802;50.198;19.796;2023-09-19T14:56:57;10.60;;;9.50;;
52934;SDS011;38802;50.198;19.796;2023-09-19T14:59:31;10.10;;;9.30;;
52934;SDS011;38802;50.198;19.796;2023-09-19T15:02:04;10.30;;;9.30;;
52934;SDS011;38802;50.198;19.796;2023-09-19T15:04:32;10.00;;;9.20;;
52934;SDS011;38802;50.198;19.796;2023-09-19T15:07:00;9.50;;;8.40;;
52934;SDS011;38802;50.198;19.796;2023-09-19T15:09:28;8.90;;;8.00;;
52934;SDS011;38802;50.198;19.796;2023-09-19T15:11:55;8.90;;;8.00;;
52934;SDS011;38802;50.198;19.796;2023-09-19T15:14:22;9.20;;;8.40;;
52934;SDS011;38802;50.198;19.796;2023-09-19T15:16:51;8.80;;;8.00;;
52934;SDS011;38802;50.198;19.796;2023-09-19T15:19:18;10.50;;;9.00;;
52934;SDS011;38802;50.198;19.796;2023-09-19T15:21:45;8.90;;;7.80;;
52934;SDS011;38802;50.198;19.796;2023-09-19T15:24:13;10.80;;;8.20;;
52934;SDS011;38802;50.198;19.796;2023-09-19T15:26:41;12.30;;;8.80;;
52934;SDS011;38802;50.198;19.796;2023-09-19T15:29:10;10.90;;;8.50;;
52934;SDS011;38802;50.198;19.796;2023-09-19T15:31:38;13.60;;;8.60;;
52934;SDS011;38802;50.198;19.796;2023-09-19T15:34:05;9.20;;;8.30;;
52934;SDS011;38802;50.198;19.796;2023-09-19T15:36:34;14.30;;;8.70;;